Time;durP1;ratioP1;P1;durP2;ratioP2;P2;SDS_P1;SDS_P2;PMS_P1;PMS_P2;Temp;Humidity;BMP_temperature;BMP_pressure;BME280_temperature;BME280_humidity;BME280_pressure;Samples;Min_cycle;Max_cycle;Signal;HPM_P1;HPM_P2
2021/10/24 00:00:25;;;;;;;19.85;11.16;;;;;;;7.29;55.23;101313.84;468517;111;922922;-82
2021/10/24 00:01:29;;;;;;;15.28;10.16;;;;;;;7.28;55.33;101308.59;467839;112;922812;-83
2021/10/24 00:02:32;;;;;;;16.92;10.78;;;;;;;7.25;55.39;101311.67;469564;110;922494;-82
2021/10/24 00:03:36;;;;;;;12.18;10.90;;;;;;;7.22;55.39;101306.61;468626;112;930243;-83
2021/10/24 00:04:40;;;;;;;16.91;10.86;;;;;;;7.20;55.45;101312.20;469091;112;930407;-82
2021/10/24 00:05:44;;;;;;;14.83;10.98;;;;;;;7.19;55.49;101309.65;467038;112;923316;-82
2021/10/24 00:06:47;;;;;;;12.52;10.22;;;;;;;7.17;55.58;101309.00;466082;112;930326;-82
2021/10/24 00:07:51;;;;;;;16.41;10.13;;;;;;;7.17;55.58;101309.00;467977;112;923053;-83
2021/10/24 00:08:54;;;;;;;12.06;10.24;;;;;;;7.18;55.69;101313.38;468196;111;930362;-83
2021/10/24 00:09:57;;;;;;;11.96;10.10;;;;;;;7.19;55.71;101310.50;468875;112;922502;-82
2021/10/24 00:11:01;;;;;;;12.35;10.65;;;;;;;7.19;55.68;101313.21;459522;115;922522;-82
2021/10/24 00:12:05;;;;;;;15.82;10.43;;;;;;;7.18;55.68;101311.52;461263;112;922238;-82
2021/10/24 00:13:08;;;;;;;12.93;10.89;;;;;;;7.15;55.70;101309.17;469490;112;922408;-82
2021/10/24 00:14:11;;;;;;;11.50;10.10;;;;;;;7.14;55.78;101315.61;468962;112;922540;-82
2021/10/24 00:15:15;;;;;;;12.56;11.14;;;;;;;7.12;55.82;101307.63;468318;112;930143;-83
2021/10/24 00:16:20;;;;;;;15.84;10.66;;;;;;;7.11;55.85;101311.36;467743;112;922690;-83
2021/10/24 00:17:23;;;;;;;15.44;10.71;;;;;;;7.09;55.84;101308.00;469068;111;922459;-82
2021/10/24 00:18:27;;;;;;;13.89;10.31;;;;;;;7.07;55.86;101307.31;468158;112;930326;-82
2021/10/24 00:19:30;;;;;;;10.94;9.83;;;;;;;7.06;55.95;101313.75;468703;111;922885;-82
2021/10/24 00:20:36;;;;;;;14.42;10.08;;;;;;;7.06;55.94;101307.48;468469;112;922543;-83
2021/10/24 00:21:39;;;;;;;13.29;10.72;;;;;;;7.05;55.97;101316.66;468579;112;922924;-82
2021/10/24 00:22:43;;;;;;;12.75;10.15;;;;;;;7.03;55.98;101307.84;468573;112;930218;-83
2021/10/24 00:23:46;;;;;;;11.89;9.85;;;;;;;7.02;56.02;101311.57;468560;111;923210;-83
2021/10/24 00:24:50;;;;;;;12.49;10.03;;;;;;;7.02;56.10;101308.86;468405;111;922968;-82
2021/10/24 00:25:54;;;;;;;13.70;11.81;;;;;;;7.02;56.06;101306.15;468631;111;923044;-83
2021/10/24 00:26:57;;;;;;;11.79;10.51;;;;;;;7.04;56.00;101309.55;468185;111;922596;-82
2021/10/24 00:28:02;;;;;;;12.68;9.92;;;;;;;7.03;56.03;101305.98;467899;112;923011;-82
2021/10/24 00:29:08;;;;;;;14.56;9.43;;;;;;;7.04;56.11;101312.25;467920;111;922562;-83
2021/10/24 00:30:11;;;;;;;12.32;10.18;;;;;;;7.04;56.09;101313.10;468357;111;922570;-83
2021/10/24 00:31:15;;;;;;;14.51;10.09;;;;;;;7.04;56.04;101313.10;468732;112;922514;-82
2021/10/24 00:32:19;;;;;;;12.26;10.36;;;;;;;7.04;56.04;101315.81;469166;112;923116;-82
2021/10/24 00:33:22;;;;;;;10.76;9.50;;;;;;;7.02;56.04;101314.28;469249;110;922486;-83
2021/10/24 00:34:26;;;;;;;11.16;10.04;;;;;;;7.03;56.05;101318.69;468474;111;922471;-83
2021/10/24 00:35:30;;;;;;;10.69;9.59;;;;;;;7.01;56.08;101313.44;468302;112;922473;-82
2021/10/24 00:36:33;;;;;;;13.20;10.38;;;;;;;7.03;56.14;101316.83;468522;111;930470;-82
2021/10/24 00:37:37;;;;;;;12.61;10.49;;;;;;;7.02;56.06;101309.70;468243;112;922793;-82
2021/10/24 00:38:41;;;;;;;16.49;11.35;;;;;;;7.01;56.02;101305.30;468633;111;922555;-82
2021/10/24 00:39:45;;;;;;;14.24;10.19;;;;;;;7.00;56.05;101316.34;462499;113;923149;-82
2021/10/24 00:40:48;;;;;;;16.24;10.56;;;;;;;6.99;56.06;101311.94;468049;112;923227;-82
2021/10/24 00:41:52;;;;;;;15.10;11.64;;;;;;;6.97;56.04;101314.81;469442;111;922689;-82
2021/10/24 00:42:56;;;;;;;13.83;10.71;;;;;;;6.95;56.08;101314.13;468049;111;923120;-82
2021/10/24 00:44:18;;;;;;;15.74;11.17;;;;;;;6.95;56.15;101321.41;468238;112;922528;-82
2021/10/24 00:45:24;;;;;;;16.16;12.04;;;;;;;6.95;56.15;101322.26;467850;111;922563;-82
2021/10/24 00:46:28;;;;;;;18.28;11.86;;;;;;;6.95;56.09;101324.12;468572;112;922516;-82
2021/10/24 00:47:34;;;;;;;19.68;11.78;;;;;;;6.92;56.13;101317.20;458196;114;922680;-82
2021/10/24 00:48:37;;;;;;;16.11;11.18;;;;;;;6.93;56.12;101324.31;459210;112;922573;-82
2021/10/24 00:49:41;;;;;;;15.32;11.10;;;;;;;6.92;56.14;101328.04;467308;112;930272;-82
2021/10/24 00:50:45;;;;;;;15.01;10.35;;;;;;;6.91;56.10;101329.05;468419;112;922656;-82
2021/10/24 00:51:49;;;;;;;15.18;11.33;;;;;;;6.90;56.11;101321.93;467649;112;922503;-83
2021/10/24 00:52:53;;;;;;;14.29;11.40;;;;;;;6.90;56.11;101318.37;468506;112;928265;-83
2021/10/24 00:53:57;;;;;;;13.41;10.24;;;;;;;6.90;56.16;101318.37;469408;112;922177;-82
2021/10/24 00:55:01;;;;;;;15.71;11.29;;;;;;;6.91;56.21;101325.48;470665;112;922774;-82
2021/10/24 00:56:05;;;;;;;14.02;11.28;;;;;;;6.91;56.22;101310.08;469698;112;922493;-82
2021/10/24 00:57:09;;;;;;;12.90;9.47;;;;;;;6.92;56.32;101309.06;469521;112;922588;-81
2021/10/24 00:58:16;;;;;;;13.82;11.62;;;;;;;6.95;56.28;101318.70;468632;111;922486;-82
2021/10/24 00:59:20;;;;;;;15.14;10.99;;;;;;;6.94;56.18;101317.88;467416;112;922541;-82
2021/10/24 01:00:25;;;;;;;13.71;10.58;;;;;;;6.93;56.21;101318.89;468794;112;922500;-81
2021/10/24 01:01:29;;;;;;;12.39;10.60;;;;;;;6.93;56.27;101309.91;469220;112;922732;-82
2021/10/24 01:02:33;;;;;;;15.29;10.49;;;;;;;6.91;56.31;101307.36;468749;112;922615;-82
2021/10/24 01:03:37;;;;;;;14.21;10.48;;;;;;;6.92;56.36;101306.35;469401;112;929945;-82
2021/10/24 01:04:43;;;;;;;12.27;9.74;;;;;;;6.95;56.34;101305.14;468017;112;930387;-81
2021/10/24 01:05:47;;;;;;;15.32;10.67;;;;;;;6.95;56.26;101305.98;468129;112;930052;-83
2021/10/24 01:06:53;;;;;;;15.48;10.95;;;;;;;6.95;56.18;101307.85;458777;113;922662;-82
2021/10/24 01:07:59;;;;;;;15.54;9.94;;;;;;;6.93;56.17;101310.76;459539;112;930471;-82
2021/10/24 01:09:05;;;;;;;14.41;10.49;;;;;;;6.89;56.16;101316.70;469693;111;922906;-82
2021/10/24 01:10:15;;;;;;;19.53;10.74;;;;;;;6.86;56.14;101311.61;468390;112;922482;-81
2021/10/24 01:11:15;;;;;;;15.05;10.06;;;;;;;6.82;56.20;101319.25;467663;111;922519;-82
2021/10/24 01:12:19;;;;;;;13.48;10.76;;;;;;;6.76;56.21;101311.81;468148;112;922596;-82
2021/10/24 01:13:23;;;;;;;15.44;10.46;;;;;;;6.72;56.24;101309.62;467062;112;930266;-82
2021/10/24 01:14:26;;;;;;;13.68;10.38;;;;;;;6.68;56.35;101303.68;468831;112;922855;-82
2021/10/24 01:15:30;;;;;;;16.41;10.23;;;;;;;6.64;56.36;101308.61;468382;112;930344;-81
2021/10/24 01:16:36;;;;;;;13.31;11.29;;;;;;;6.62;56.40;101310.63;469115;112;922391;-82
2021/10/24 01:17:40;;;;;;;11.86;10.55;;;;;;;6.60;56.43;101311.84;467790;112;922545;-83
2021/10/24 01:18:44;;;;;;;11.89;10.66;;;;;;;6.60;56.49;101322.67;467632;112;922871;-83
2021/10/24 01:19:49;;;;;;;13.91;12.01;;;;;;;6.59;56.50;101312.84;467890;111;922954;-81
2021/10/24 01:20:53;;;;;;;16.09;11.57;;;;;;;6.59;56.52;101321.83;467178;111;922640;-81
2021/10/24 01:21:56;;;;;;;14.94;11.47;;;;;;;6.59;56.52;101321.83;469868;111;930461;-81
2021/10/24 01:23:00;;;;;;;15.10;12.35;;;;;;;6.60;56.44;101317.25;469034;111;922476;-81
2021/10/24 01:24:05;;;;;;;17.52;11.48;;;;;;;6.59;56.47;101320.98;459189;113;930386;-82
2021/10/24 01:25:09;;;;;;;16.60;11.25;;;;;;;6.59;56.47;101326.39;459025;113;922607;-83
2021/10/24 01:26:14;;;;;;;16.62;11.19;;;;;;;6.58;56.44;101322.84;468189;111;922597;-83
2021/10/24 01:27:17;;;;;;;11.73;10.46;;;;;;;6.58;56.46;101316.57;467268;111;922706;-82
2021/10/24 01:28:21;;;;;;;12.52;10.14;;;;;;;6.58;56.49;101328.25;457555;113;930667;-82
2021/10/24 01:29:24;;;;;;;12.39;10.54;;;;;;;6.59;56.48;101323.69;459154;112;930369;-82
2021/10/24 01:30:28;;;;;;;12.51;9.21;;;;;;;6.61;56.43;101327.08;467869;112;922573;-82
2021/10/24 01:31:32;;;;;;;12.53;10.48;;;;;;;6.62;56.47;101328.75;469638;111;922416;-81
2021/10/24 01:32:38;;;;;;;11.37;9.98;;;;;;;6.62;56.47;101328.75;466793;112;930548;-82
2021/10/24 01:33:43;;;;;;;11.36;10.19;;;;;;;6.62;56.40;101331.45;467814;112;922522;-83
2021/10/24 01:34:48;;;;;;;13.82;10.62;;;;;;;6.62;56.37;101334.17;463438;113;922500;-82
2021/10/24 01:36:01;;;;;;;12.33;10.08;;;;;;;6.62;56.34;101329.59;468340;112;922262;-82
2021/10/24 01:37:05;;;;;;;12.16;9.25;;;;;;;6.60;56.31;101337.08;469449;111;922480;-81
2021/10/24 01:38:09;;;;;;;12.19;10.45;;;;;;;6.59;56.35;101331.81;469795;112;922542;-83
2021/10/24 01:39:13;;;;;;;13.66;10.19;;;;;;;6.57;56.38;101336.55;470345;112;922605;-82
2021/10/24 01:40:17;;;;;;;12.78;9.79;;;;;;;6.54;56.32;101334.19;469697;111;930132;-82
2021/10/24 01:41:28;;;;;;;12.32;9.78;;;;;;;6.52;56.36;101333.50;470126;112;921996;-82
2021/10/24 01:42:31;;;;;;;14.19;10.15;;;;;;;6.50;56.37;101336.41;468170;111;929878;-81
2021/10/24 01:43:35;;;;;;;14.51;10.98;;;;;;;6.49;56.46;101339.28;468228;112;922692;-81
2021/10/24 01:44:40;;;;;;;15.19;10.61;;;;;;;6.47;56.50;101327.75;468344;112;922497;-81
2021/10/24 01:45:43;;;;;;;13.79;10.86;;;;;;;6.43;56.86;101329.11;468638;112;930499;-82
2021/10/24 01:46:48;;;;;;;18.02;10.77;;;;;;;6.43;56.86;101329.11;468058;112;930375;-81
2021/10/24 01:47:52;;;;;;;11.17;9.94;;;;;;;6.41;56.66;101323.02;468535;112;922770;-82
2021/10/24 01:48:56;;;;;;;13.46;10.27;;;;;;;6.40;56.69;101327.58;468132;112;930608;-82
2021/10/24 01:50:00;;;;;;;11.08;9.42;;;;;;;6.39;56.73;101333.19;459432;115;922745;-83
2021/10/24 01:51:04;;;;;;;12.78;10.54;;;;;;;6.37;56.83;101337.91;459227;112;930323;-82
2021/10/24 01:52:08;;;;;;;12.04;10.38;;;;;;;6.35;56.83;101329.95;467463;112;922518;-83
2021/10/24 01:53:20;;;;;;;14.69;11.12;;;;;;;6.33;56.84;101333.86;468320;111;930285;-82
2021/10/24 01:54:24;;;;;;;13.64;10.25;;;;;;;6.29;56.89;101336.89;468549;111;922736;-82
2021/10/24 01:55:27;;;;;;;12.44;10.14;;;;;;;6.28;56.95;101337.08;458021;114;922991;-82
2021/10/24 01:56:33;;;;;;;12.59;10.53;;;;;;;6.28;57.08;101337.08;449940;115;923199;-82
2021/10/24 01:57:36;;;;;;;11.79;10.56;;;;;;;6.28;57.14;101329.77;468509;111;922803;-82
2021/10/24 01:58:40;;;;;;;16.10;10.79;;;;;;;6.30;57.18;101337.73;469481;112;930068;-82
2021/10/24 01:59:44;;;;;;;12.68;9.74;;;;;;;6.28;57.18;101337.90;468339;111;922408;-81
2021/10/24 02:00:53;;;;;;;15.70;10.46;;;;;;;6.27;57.17;101332.67;454301;110;922801;-83
2021/10/24 02:01:58;;;;;;;11.51;10.03;;;;;;;6.24;57.14;101339.26;467789;112;923096;-82
2021/10/24 02:03:04;;;;;;;16.22;10.47;;;;;;;6.22;57.25;101329.63;450080;117;922974;-81
2021/10/24 02:04:15;;;;;;;12.68;10.32;;;;;;;6.22;57.30;101327.77;459569;112;922555;-82
2021/10/24 02:05:20;;;;;;;13.06;10.53;;;;;;;6.23;57.26;101332.14;466881;112;922612;-83
2021/10/24 02:06:25;;;;;;;11.52;10.21;;;;;;;6.23;57.29;101329.44;467188;112;922638;-82
2021/10/24 02:07:29;;;;;;;11.11;9.76;;;;;;;6.22;57.25;101325.06;468151;111;923041;-81
2021/10/24 02:08:33;;;;;;;13.31;10.15;;;;;;;6.22;57.28;101325.06;467874;112;922602;-82
2021/10/24 02:09:37;;;;;;;11.99;9.69;;;;;;;6.23;57.20;101332.14;469316;111;922545;-82
2021/10/24 02:10:41;;;;;;;12.95;10.25;;;;;;;6.22;57.19;101325.06;468165;111;923204;-83
2021/10/24 02:11:46;;;;;;;11.49;9.47;;;;;;;6.21;57.07;101328.78;459062;115;922714;-80
2021/10/24 02:12:49;;;;;;;12.30;10.46;;;;;;;6.20;57.11;101332.49;460091;112;922624;-81
2021/10/24 02:13:55;;;;;;;11.65;9.67;;;;;;;6.20;57.16;101335.20;468281;112;922583;-80
2021/10/24 02:14:59;;;;;;;11.03;9.97;;;;;;;6.19;57.10;101335.36;466856;111;923017;-82
2021/10/24 02:16:03;;;;;;;11.05;9.93;;;;;;;6.16;57.12;101328.44;457746;115;930144;-81
2021/10/24 02:17:06;;;;;;;12.61;11.10;;;;;;;6.14;57.08;101329.61;458218;113;922787;-81
2021/10/24 02:18:13;;;;;;;10.88;9.73;;;;;;;6.13;57.13;101336.03;461031;113;922943;-81
2021/10/24 02:19:18;;;;;;;11.59;9.81;;;;;;;6.11;57.11;101343.49;461846;112;923075;-82
2021/10/24 02:20:24;;;;;;;12.36;9.67;;;;;;;6.09;57.08;101346.36;467496;112;922429;-82
2021/10/24 02:21:28;;;;;;;10.90;9.57;;;;;;;6.08;57.10;101341.95;467988;112;922615;-81
2021/10/24 02:22:31;;;;;;;15.76;10.09;;;;;;;6.06;57.11;101344.00;468772;112;922505;-82
2021/10/24 02:23:36;;;;;;;11.20;9.68;;;;;;;6.06;57.07;101344.00;458205;114;930145;-81
2021/10/24 02:24:41;;;;;;;12.19;9.36;;;;;;;6.05;57.06;101338.74;459277;113;922670;-83
2021/10/24 02:25:45;;;;;;;16.84;10.25;;;;;;;6.06;57.04;101340.44;468986;111;929873;-83
2021/10/24 02:26:49;;;;;;;10.87;9.69;;;;;;;6.05;57.00;101345.01;469327;112;922851;-82
2021/10/24 02:27:53;;;;;;;14.38;10.46;;;;;;;6.04;56.92;101342.45;468501;111;930527;-82
2021/10/24 02:28:56;;;;;;;11.70;10.44;;;;;;;6.01;56.96;101346.33;468237;112;922635;-82
2021/10/24 02:30:00;;;;;;;10.71;9.59;;;;;;;6.00;56.99;101338.40;467645;111;930315;-82
2021/10/24 02:31:05;;;;;;;10.77;9.64;;;;;;;5.98;56.93;101337.70;468869;112;930543;-82
2021/10/24 02:32:14;;;;;;;13.58;9.97;;;;;;;5.96;56.97;101337.86;443268;116;922783;-82
2021/10/24 02:33:22;;;;;;;11.53;9.58;;;;;;;5.93;56.89;101340.06;462034;112;922592;-81
2021/10/24 02:34:30;;;;;;;13.13;9.77;;;;;;;5.89;56.92;101339.56;464719;112;922620;-81
2021/10/24 02:35:39;;;;;;;12.77;10.44;;;;;;;5.86;56.90;101342.55;468287;112;922643;-81
2021/10/24 02:36:43;;;;;;;12.06;10.21;;;;;;;5.81;56.98;101344.91;469692;111;922637;-81
2021/10/24 02:37:47;;;;;;;14.66;10.23;;;;;;;5.76;57.03;101340.00;468480;111;922707;-82
2021/10/24 02:38:53;;;;;;;14.89;10.24;;;;;;;5.73;57.08;101351.13;468413;111;930364;-82
2021/10/24 02:39:56;;;;;;;11.48;9.88;;;;;;;5.72;57.15;101348.62;467707;112;922495;-81
2021/10/24 02:41:01;;;;;;;14.32;10.48;;;;;;;5.72;57.15;101348.62;467824;112;930336;-81
2021/10/24 02:42:06;;;;;;;11.54;9.68;;;;;;;5.72;57.20;101354.88;469112;111;922610;-81
2021/10/24 02:43:10;;;;;;;11.19;9.48;;;;;;;5.72;57.19;101348.62;458930;113;923759;-82
2021/10/24 02:44:14;;;;;;;12.74;10.33;;;;;;;5.71;57.16;101355.03;459658;112;922720;-82
2021/10/24 02:45:20;;;;;;;13.05;10.58;;;;;;;5.69;57.19;101351.63;469756;111;923375;-82
2021/10/24 02:46:24;;;;;;;12.82;10.51;;;;;;;5.66;57.22;101351.98;469550;112;922752;-82
2021/10/24 02:47:28;;;;;;;13.33;9.87;;;;;;;5.62;57.26;101351.47;469519;111;922660;-82
2021/10/24 02:48:31;;;;;;;12.44;11.01;;;;;;;5.58;57.34;101357.34;469151;112;922572;-81
2021/10/24 02:49:35;;;;;;;16.49;11.41;;;;;;;5.55;57.39;101352.28;469986;112;930340;-82
2021/10/24 02:50:39;;;;;;;11.44;10.22;;;;;;;5.53;57.45;101355.13;469979;111;930337;-81
2021/10/24 02:51:44;;;;;;;12.50;10.15;;;;;;;5.51;57.56;101353.62;468751;111;922937;-82
2021/10/24 02:52:48;;;;;;;11.62;9.82;;;;;;;5.51;57.59;101356.33;469745;112;922965;-82
2021/10/24 02:53:52;;;;;;;16.54;10.75;;;;;;;5.49;57.60;101351.07;469155;112;922373;-82
2021/10/24 02:54:56;;;;;;;13.81;10.32;;;;;;;5.50;57.66;101354.63;469151;112;930291;-80
2021/10/24 02:56:00;;;;;;;13.35;11.15;;;;;;;5.49;57.71;101352.92;469706;112;922693;-81
2021/10/24 02:57:05;;;;;;;12.08;10.40;;;;;;;5.50;57.73;101354.63;449314;116;930164;-82
2021/10/24 02:58:08;;;;;;;11.86;9.74;;;;;;;5.49;57.81;101355.63;468692;112;923116;-81
2021/10/24 02:59:13;;;;;;;10.67;9.07;;;;;;;5.49;57.85;101358.34;468886;111;922489;-81
2021/10/24 03:00:17;;;;;;;12.36;9.84;;;;;;;5.49;57.85;101361.04;468709;112;923285;-81
2021/10/24 03:01:21;;;;;;;10.71;9.01;;;;;;;5.48;57.96;101362.05;467321;111;929985;-80
2021/10/24 03:02:24;;;;;;;10.18;9.02;;;;;;;5.46;57.94;101363.05;468948;111;922344;-81
2021/10/24 03:03:28;;;;;;;11.20;9.31;;;;;;;5.45;57.96;101358.67;467560;112;930485;-81
2021/10/24 03:04:32;;;;;;;10.67;9.58;;;;;;;5.43;57.99;101355.27;458619;113;930249;-81
2021/10/24 03:05:35;;;;;;;10.20;8.28;;;;;;;5.44;58.06;101361.53;459235;113;922550;-81
2021/10/24 03:06:39;;;;;;;10.81;9.74;;;;;;;5.45;58.12;101363.23;466465;112;928900;-81
2021/10/24 03:07:43;;;;;;;9.89;8.86;;;;;;;5.47;58.14;101361.19;460009;113;930158;-81
2021/10/24 03:08:46;;;;;;;13.44;9.99;;;;;;;5.49;58.11;101363.75;467912;112;922508;-82
2021/10/24 03:09:50;;;;;;;11.01;9.01;;;;;;;5.50;58.05;101363.59;457997;115;930402;-82
2021/10/24 03:10:54;;;;;;;11.41;8.82;;;;;;;5.50;57.94;101365.45;461223;112;923055;-83
2021/10/24 03:11:58;;;;;;;11.09;9.74;;;;;;;5.49;57.94;101369.16;469749;112;922612;-82
2021/10/24 03:13:01;;;;;;;14.23;9.41;;;;;;;5.46;57.94;101368.45;469774;112;930621;-82
2021/10/24 03:14:05;;;;;;;11.73;10.21;;;;;;;5.45;57.92;101366.79;469418;111;922573;-82
2021/10/24 03:15:10;;;;;;;10.45;8.94;;;;;;;5.44;57.96;101367.80;469395;112;930017;-81
2021/10/24 03:16:14;;;;;;;15.13;9.59;;;;;;;5.44;57.97;101375.91;469508;112;922512;-82
2021/10/24 03:17:18;;;;;;;11.95;9.88;;;;;;;5.44;57.97;101367.80;468964;112;922699;-82
2021/10/24 03:18:21;;;;;;;11.94;9.12;;;;;;;5.45;57.88;101371.34;469424;112;922637;-83
2021/10/24 03:19:26;;;;;;;22.39;9.43;;;;;;;5.45;57.84;101374.05;459056;114;922530;-82
2021/10/24 03:20:32;;;;;;;12.08;9.84;;;;;;;5.45;57.89;101368.64;459874;112;930279;-82
2021/10/24 03:21:37;;;;;;;12.02;10.89;;;;;;;5.44;57.85;101373.20;469048;112;922209;-81
2021/10/24 03:22:41;;;;;;;15.90;11.43;;;;;;;5.42;57.81;101369.80;468031;111;922579;-82
2021/10/24 03:23:45;;;;;;;13.90;11.13;;;;;;;5.39;57.76;101369.29;468579;111;930348;-82
2021/10/24 03:24:48;;;;;;;15.66;12.53;;;;;;;5.35;57.81;101374.16;468924;112;930797;-81
2021/10/24 03:25:52;;;;;;;15.16;12.89;;;;;;;5.33;57.81;101368.08;468994;112;922994;-81
2021/10/24 03:26:56;;;;;;;16.97;13.47;;;;;;;5.31;57.82;101361.12;469567;112;930301;-82
2021/10/24 03:28:00;;;;;;;17.76;14.28;;;;;;;5.28;57.83;101362.31;468922;112;930367;-82
2021/10/24 03:29:04;;;;;;;18.77;13.30;;;;;;;5.27;57.92;101362.47;468674;112;922720;-82
2021/10/24 03:30:08;;;;;;;16.24;14.08;;;;;;;5.27;57.99;101365.17;460615;113;922592;-82
2021/10/24 03:31:12;;;;;;;17.63;13.97;;;;;;;5.28;57.92;101369.57;461454;112;922653;-82
2021/10/24 03:32:16;;;;;;;19.59;13.61;;;;;;;5.28;57.89;101369.57;464179;113;922522;-82
2021/10/24 03:33:19;;;;;;;16.55;13.14;;;;;;;5.28;57.96;101369.57;451515;116;922983;-81
2021/10/24 03:34:23;;;;;;;15.59;12.91;;;;;;;5.29;57.94;101368.57;467861;111;922639;-82
2021/10/24 03:35:26;;;;;;;13.90;12.63;;;;;;;5.29;57.88;101371.27;468226;112;922498;-81
2021/10/24 03:36:30;;;;;;;16.46;12.48;;;;;;;5.27;57.90;101367.88;466465;113;930348;-82
2021/10/24 03:37:34;;;;;;;17.93;12.91;;;;;;;5.26;57.92;101364.31;465791;111;930356;-82
2021/10/24 03:38:37;;;;;;;18.77;14.26;;;;;;;5.25;57.95;101357.20;465951;111;922667;-83
2021/10/24 03:39:41;;;;;;;15.36;12.88;;;;;;;5.25;57.91;101365.31;468614;112;930452;-82
2021/10/24 03:40:45;;;;;;;15.88;12.12;;;;;;;5.23;57.92;101358.39;469222;111;922933;-81
2021/10/24 03:41:49;;;;;;;17.73;13.06;;;;;;;5.22;57.92;101365.66;468698;111;930443;-82
2021/10/24 03:42:53;;;;;;;15.18;13.62;;;;;;;5.19;57.96;101363.26;467727;112;922603;-82
2021/10/24 03:43:56;;;;;;;20.69;13.18;;;;;;;5.18;57.94;101361.59;469093;112;922495;-82
2021/10/24 03:44:59;;;;;;;19.38;14.76;;;;;;;5.18;58.02;101363.44;470304;111;922337;-82
2021/10/24 03:46:03;;;;;;;21.31;14.27;;;;;;;5.18;58.10;101371.55;469065;111;922015;-81
2021/10/24 03:47:07;;;;;;;18.38;15.09;;;;;;;5.19;58.11;101367.81;468569;112;930340;-82
2021/10/24 03:48:10;;;;;;;15.86;14.31;;;;;;;5.20;58.07;101366.81;467431;112;923018;-83
2021/10/24 03:49:15;;;;;;;17.39;15.38;;;;;;;5.18;58.07;101364.30;466527;112;922616;-82
2021/10/24 03:50:21;;;;;;;17.82;16.11;;;;;;;5.17;58.10;101362.59;468766;112;922546;-82
2021/10/24 03:51:25;;;;;;;20.83;16.46;;;;;;;5.18;58.15;101363.44;467206;112;922994;-83
2021/10/24 03:52:28;;;;;;;21.92;17.10;;;;;;;5.17;58.11;101372.55;467756;112;922854;-82
2021/10/24 03:53:31;;;;;;;25.58;17.84;;;;;;;5.15;58.13;101370.00;467667;111;930417;-83
2021/10/24 03:54:36;;;;;;;26.45;18.82;;;;;;;5.14;58.16;101376.41;468904;111;923161;-82
2021/10/24 03:55:39;;;;;;;23.45;17.44;;;;;;;5.14;58.18;101371.00;457600;113;923348;-82
2021/10/24 03:56:43;;;;;;;22.88;18.20;;;;;;;5.14;58.17;101376.41;459470;112;930704;-82
2021/10/24 03:57:46;;;;;;;22.72;17.72;;;;;;;5.15;58.18;101371.85;468111;111;930544;-83
2021/10/24 03:58:52;;;;;;;24.99;17.44;;;;;;;5.16;58.18;101368.15;457562;114;930600;-82
2021/10/24 03:59:55;;;;;;;22.88;17.06;;;;;;;5.16;58.17;101379.81;460766;113;930952;-82
2021/10/24 04:00:58;;;;;;;18.57;15.64;;;;;;;5.17;58.13;101380.66;469576;110;922836;-81
2021/10/24 04:02:03;;;;;;;19.28;15.36;;;;;;;5.16;58.13;101376.26;469534;111;930453;-81
2021/10/24 04:03:07;;;;;;;23.11;16.24;;;;;;;5.16;58.13;101379.81;469109;112;922864;-81
2021/10/24 04:04:16;;;;;;;17.74;15.29;;;;;;;5.16;58.12;101377.11;468786;112;922722;-82
2021/10/24 04:05:20;;;;;;;15.93;13.75;;;;;;;5.17;58.16;101381.52;469443;112;922689;-82
2021/10/24 04:06:25;;;;;;;14.94;12.80;;;;;;;5.18;58.04;101385.06;469183;111;930438;-82
2021/10/24 04:07:29;;;;;;;15.38;12.21;;;;;;;5.16;58.02;101387.07;468788;111;922862;-83
2021/10/24 04:08:32;;;;;;;16.36;11.76;;;;;;;5.14;57.99;101384.52;469405;112;930882;-81
2021/10/24 04:09:36;;;;;;;13.96;11.83;;;;;;;5.14;57.97;101387.22;469130;112;930646;-82
2021/10/24 04:10:40;;;;;;;15.62;11.62;;;;;;;5.13;58.08;101380.11;468834;112;922775;-82
2021/10/24 04:11:43;;;;;;;15.03;11.36;;;;;;;5.15;58.06;101388.92;469507;112;922480;-83
2021/10/24 04:12:48;;;;;;;12.96;11.32;;;;;;;5.14;57.94;101389.92;468704;112;924877;-82
2021/10/24 04:13:51;;;;;;;11.55;10.39;;;;;;;5.14;57.89;101392.63;469029;111;930322;-83
2021/10/24 04:14:55;;;;;;;14.56;10.14;;;;;;;5.13;57.87;101393.63;468044;112;922649;-84
2021/10/24 04:15:58;;;;;;;15.78;10.79;;;;;;;5.12;57.86;101389.26;469028;111;930289;-81
2021/10/24 04:17:20;;;;;;;11.54;10.27;;;;;;;5.11;57.78;101387.55;468663;112;923024;-81
2021/10/24 04:18:25;;;;;;;11.29;9.82;;;;;;;5.07;57.75;101391.59;469326;111;923161;-81
2021/10/24 04:19:28;;;;;;;14.06;10.41;;;;;;;5.04;57.81;101391.90;470031;112;929963;-83
2021/10/24 04:20:33;;;;;;;14.79;10.46;;;;;;;5.01;57.70;101392.23;469846;112;930341;-82
2021/10/24 04:21:37;;;;;;;11.91;10.57;;;;;;;5.01;57.70;101392.23;469261;112;922381;-80
2021/10/24 04:22:41;;;;;;;14.19;9.64;;;;;;;4.99;57.82;101386.98;470636;111;922487;-82
2021/10/24 04:23:44;;;;;;;12.74;10.56;;;;;;;4.96;57.86;101395.38;469917;112;922048;-81
2021/10/24 04:24:48;;;;;;;12.13;9.96;;;;;;;4.93;57.89;101395.71;463603;113;922407;-82
2021/10/24 04:25:51;;;;;;;11.33;9.79;;;;;;;4.91;57.94;101396.86;455483;114;929705;-83
2021/10/24 04:26:56;;;;;;;13.51;9.54;;;;;;;4.90;58.02;101403.30;455406;116;929834;-82
2021/10/24 04:28:00;;;;;;;11.51;9.62;;;;;;;4.90;58.03;101398.75;460952;114;922076;-81
2021/10/24 04:29:04;;;;;;;13.66;9.88;;;;;;;4.89;58.02;101401.59;455947;114;929671;-81
2021/10/24 04:30:09;;;;;;;15.10;10.24;;;;;;;4.87;58.02;101407.15;464221;113;922224;-82
2021/10/24 04:31:13;;;;;;;11.00;9.68;;;;;;;4.84;58.07;101398.52;464207;113;922052;-81
2021/10/24 04:32:17;;;;;;;13.56;9.30;;;;;;;4.83;58.20;101402.23;464229;113;922657;-80
2021/10/24 04:33:21;;;;;;;9.79;8.79;;;;;;;4.83;58.26;101403.08;456400;115;922329;-82
2021/10/24 04:34:25;;;;;;;12.51;9.81;;;;;;;4.82;58.28;101409.48;455161;113;922362;-82
2021/10/24 04:35:28;;;;;;;15.13;9.24;;;;;;;4.81;58.30;101407.78;444917;118;922301;-81
2021/10/24 04:36:32;;;;;;;17.95;10.86;;;;;;;4.80;58.37;101399.82;452258;115;922257;-81
2021/10/24 04:37:35;;;;;;;15.85;10.22;;;;;;;4.80;58.40;101397.12;459342;113;922268;-82
2021/10/24 04:38:39;;;;;;;15.22;9.41;;;;;;;4.80;58.44;101399.82;448846;115;922556;-81
2021/10/24 04:39:43;;;;;;;16.08;9.88;;;;;;;4.81;58.45;101415.03;461261;112;921940;-81
2021/10/24 04:40:48;;;;;;;10.55;9.03;;;;;;;4.81;58.54;101415.03;469535;110;926126;-82
2021/10/24 04:41:52;;;;;;;12.83;9.11;;;;;;;4.80;58.58;101411.48;471259;112;922129;-82
2021/10/24 04:42:56;;;;;;;18.06;9.49;;;;;;;4.81;58.70;101421.28;470980;112;922536;-82
2021/10/24 04:44:00;;;;;;;13.31;9.82;;;;;;;4.83;58.80;101411.18;470432;112;922142;-82
2021/10/24 04:45:06;;;;;;;11.93;10.27;;;;;;;4.87;58.81;101409.00;469776;111;930039;-82
2021/10/24 04:46:10;;;;;;;10.66;9.22;;;;;;;4.90;58.84;101414.11;470399;111;922079;-81
2021/10/24 04:47:13;;;;;;;13.56;9.49;;;;;;;4.93;58.89;101409.23;471225;112;922198;-82
2021/10/24 04:48:17;;;;;;;12.19;10.42;;;;;;;4.96;58.94;101417.00;470383;112;929907;-81
2021/10/24 04:49:21;;;;;;;12.05;9.21;;;;;;;5.00;58.90;101414.84;470682;111;930211;-81
2021/10/24 04:50:26;;;;;;;11.04;9.79;;;;;;;5.03;58.96;101415.37;470873;111;922383;-83
2021/10/24 04:51:30;;;;;;;10.48;8.58;;;;;;;5.09;58.90;101427.41;470924;112;922169;-82
2021/10/24 04:52:37;;;;;;;19.66;10.06;;;;;;;5.12;58.84;101424.40;470520;111;930081;-82
2021/10/24 04:53:40;;;;;;;11.48;10.08;;;;;;;5.15;58.76;101429.47;471408;112;922213;-82